sensor_id;sensor_type;location;lat;lon;timestamp;temperature;humidity
23703;DHT22;12030;50.376;8.762;2023-07-24T00:00:44;17.60;99.90
23703;DHT22;12030;50.376;8.762;2023-07-24T00:03:10;17.60;99.90
23703;DHT22;12030;50.376;8.762;2023-07-24T00:05:35;17.60;99.90
23703;DHT22;12030;50.376;8.762;2023-07-24T00:08:01;17.60;99.90
23703;DHT22;12030;50.376;8.762;2023-07-24T00:10:27;17.60;99.90
23703;DHT22;12030;50.376;8.762;2023-07-24T00:12:52;17.60;99.90
23703;DHT22;12030;50.376;8.762;2023-07-24T00:15:18;17.50;99.90
23703;DHT22;12030;50.376;8.762;2023-07-24T00:17:44;17.50;99.90
23703;DHT22;12030;50.376;8.762;2023-07-24T00:20:09;17.50;99.90
23703;DHT22;12030;50.376;8.762;2023-07-24T00:22:35;17.50;99.90
23703;DHT22;12030;50.376;8.762;2023-07-24T00:25:00;17.40;99.90
23703;DHT22;12030;50.376;8.762;2023-07-24T00:27:26;17.40;99.90
23703;DHT22;12030;50.376;8.762;2023-07-24T00:29:51;17.40;99.90
23703;DHT22;12030;50.376;8.762;2023-07-24T00:32:17;17.40;99.90
23703;DHT22;12030;50.376;8.762;2023-07-24T00:34:42;17.50;99.90
23703;DHT22;12030;50.376;8.762;2023-07-24T00:37:08;17.40;99.90
23703;DHT22;12030;50.376;8.762;2023-07-24T00:39:33;17.40;99.90
23703;DHT22;12030;50.376;8.762;2023-07-24T00:41:59;17.40;99.90
23703;DHT22;12030;50.376;8.762;2023-07-24T00:44:24;17.40;99.90
23703;DHT22;12030;50.376;8.762;2023-07-24T00:46:50;17.30;99.90
23703;DHT22;12030;50.376;8.762;2023-07-24T00:49:16;17.30;99.90
23703;DHT22;12030;50.376;8.762;2023-07-24T00:51:42;17.30;99.90
23703;DHT22;12030;50.376;8.762;2023-07-24T00:54:11;17.20;99.90
23703;DHT22;12030;50.376;8.762;2023-07-24T00:56:36;17.20;99.90
23703;DHT22;12030;50.376;8.762;2023-07-24T00:59:02;17.10;99.90
23703;DHT22;12030;50.376;8.762;2023-07-24T01:01:28;17.20;99.90
23703;DHT22;12030;50.376;8.762;2023-07-24T01:03:57;17.20;99.90
23703;DHT22;12030;50.376;8.762;2023-07-24T01:06:23;17.20;99.90
23703;DHT22;12030;50.376;8.762;2023-07-24T01:08:49;17.30;99.90
23703;DHT22;12030;50.376;8.762;2023-07-24T01:11:19;17.30;99.90
23703;DHT22;12030;50.376;8.762;2023-07-24T01:16:46;17.40;99.90
23703;DHT22;12030;50.376;8.762;2023-07-24T01:22:05;17.50;99.90
23703;DHT22;12030;50.376;8.762;2023-07-24T01:24:37;17.50;99.90
23703;DHT22;12030;50.376;8.762;2023-07-24T01:27:09;17.50;99.90
23703;DHT22;12030;50.376;8.762;2023-07-24T01:29:34;17.60;99.90
23703;DHT22;12030;50.376;8.762;2023-07-24T01:32:00;17.50;99.90
23703;DHT22;12030;50.376;8.762;2023-07-24T01:34:25;17.50;99.90
23703;DHT22;12030;50.376;8.762;2023-07-24T01:36:51;17.60;99.90
23703;DHT22;12030;50.376;8.762;2023-07-24T01:39:19;17.60;99.90
23703;DHT22;12030;50.376;8.762;2023-07-24T01:41:45;17.60;99.90
23703;DHT22;12030;50.376;8.762;2023-07-24T01:44:11;17.60;99.90
23703;DHT22;12030;50.376;8.762;2023-07-24T01:46:37;17.60;99.90
23703;DHT22;12030;50.376;8.762;2023-07-24T01:49:03;17.60;99.90
23703;DHT22;12030;50.376;8.762;2023-07-24T01:51:28;17.70;99.90
23703;DHT22;12030;50.376;8.762;2023-07-24T01:53:54;17.60;99.90
23703;DHT22;12030;50.376;8.762;2023-07-24T01:56:19;17.70;99.90
23703;DHT22;12030;50.376;8.762;2023-07-24T01:58:45;17.60;99.90
23703;DHT22;12030;50.376;8.762;2023-07-24T02:01:10;17.60;99.90
23703;DHT22;12030;50.376;8.762;2023-07-24T02:03:36;17.60;99.90
23703;DHT22;12030;50.376;8.762;2023-07-24T02:06:01;17.60;99.90
23703;DHT22;12030;50.376;8.762;2023-07-24T02:08:27;17.70;99.90
23703;DHT22;12030;50.376;8.762;2023-07-24T02:10:52;17.60;99.90
23703;DHT22;12030;50.376;8.762;2023-07-24T02:13:18;17.60;99.90
23703;DHT22;12030;50.376;8.762;2023-07-24T02:15:44;17.60;99.90
23703;DHT22;12030;50.376;8.762;2023-07-24T02:18:09;17.60;99.90
23703;DHT22;12030;50.376;8.762;2023-07-24T02:20:34;17.60;99.90
23703;DHT22;12030;50.376;8.762;2023-07-24T02:23:00;17.60;99.90
23703;DHT22;12030;50.376;8.762;2023-07-24T02:25:25;17.60;99.90
23703;DHT22;12030;50.376;8.762;2023-07-24T02:27:51;17.60;99.90
23703;DHT22;12030;50.376;8.762;2023-07-24T02:30:16;17.70;99.90
23703;DHT22;12030;50.376;8.762;2023-07-24T02:32:42;17.60;99.90
23703;DHT22;12030;50.376;8.762;2023-07-24T02:35:08;17.60;99.90
23703;DHT22;12030;50.376;8.762;2023-07-24T02:37:33;17.60;99.90
23703;DHT22;12030;50.376;8.762;2023-07-24T02:39:59;17.50;99.90
23703;DHT22;12030;50.376;8.762;2023-07-24T02:42:24;17.60;99.90
23703;DHT22;12030;50.376;8.762;2023-07-24T02:44:50;17.60;99.90
23703;DHT22;12030;50.376;8.762;2023-07-24T02:47:15;17.60;99.90
23703;DHT22;12030;50.376;8.762;2023-07-24T02:49:41;17.50;99.90
23703;DHT22;12030;50.376;8.762;2023-07-24T02:52:06;17.50;99.90
23703;DHT22;12030;50.376;8.762;2023-07-24T02:54:32;17.60;99.90
23703;DHT22;12030;50.376;8.762;2023-07-24T02:56:57;17.60;99.90
23703;DHT22;12030;50.376;8.762;2023-07-24T02:59:23;17.60;99.90
23703;DHT22;12030;50.376;8.762;2023-07-24T03:01:49;17.50;99.90
23703;DHT22;12030;50.376;8.762;2023-07-24T03:04:14;17.50;99.90
23703;DHT22;12030;50.376;8.762;2023-07-24T03:06:40;17.50;99.90
23703;DHT22;12030;50.376;8.762;2023-07-24T03:09:06;17.60;99.90
23703;DHT22;12030;50.376;8.762;2023-07-24T03:11:31;17.60;99.90
23703;DHT22;12030;50.376;8.762;2023-07-24T03:13:57;17.60;99.90
23703;DHT22;12030;50.376;8.762;2023-07-24T03:16:22;17.60;99.90
23703;DHT22;12030;50.376;8.762;2023-07-24T03:18:48;17.60;99.90
23703;DHT22;12030;50.376;8.762;2023-07-24T03:21:13;17.50;99.90
23703;DHT22;12030;50.376;8.762;2023-07-24T03:23:39;17.60;99.90
23703;DHT22;12030;50.376;8.762;2023-07-24T03:26:04;17.50;99.90
23703;DHT22;12030;50.376;8.762;2023-07-24T03:28:30;17.50;99.90
23703;DHT22;12030;50.376;8.762;2023-07-24T03:30:55;17.60;99.90
23703;DHT22;12030;50.376;8.762;2023-07-24T03:33:21;17.60;99.90
23703;DHT22;12030;50.376;8.762;2023-07-24T03:35:46;17.60;99.90
23703;DHT22;12030;50.376;8.762;2023-07-24T03:38:12;17.60;99.90
23703;DHT22;12030;50.376;8.762;2023-07-24T03:40:37;17.60;99.90
23703;DHT22;12030;50.376;8.762;2023-07-24T03:43:03;17.60;99.90
23703;DHT22;12030;50.376;8.762;2023-07-24T03:45:29;17.50;99.90
23703;DHT22;12030;50.376;8.762;2023-07-24T03:47:54;17.50;99.90
23703;DHT22;12030;50.376;8.762;2023-07-24T03:50:20;17.50;99.90
23703;DHT22;12030;50.376;8.762;2023-07-24T03:52:45;17.50;99.90
23703;DHT22;12030;50.376;8.762;2023-07-24T03:55:11;17.50;99.90
23703;DHT22;12030;50.376;8.762;2023-07-24T03:57:36;17.40;99.90
23703;DHT22;12030;50.376;8.762;2023-07-24T04:00:03;17.50;99.90
23703;DHT22;12030;50.376;8.762;2023-07-24T04:02:28;17.40;99.90
23703;DHT22;12030;50.376;8.762;2023-07-24T04:04:54;17.40;99.90
23703;DHT22;12030;50.376;8.762;2023-07-24T04:07:20;17.40;99.90
23703;DHT22;12030;50.376;8.762;2023-07-24T04:09:45;17.50;99.90
23703;DHT22;12030;50.376;8.762;2023-07-24T04:12:11;17.50;99.90
23703;DHT22;12030;50.376;8.762;2023-07-24T04:14:36;17.40;99.90
23703;DHT22;12030;50.376;8.762;2023-07-24T04:17:02;17.40;99.90
23703;DHT22;12030;50.376;8.762;2023-07-24T04:19:27;17.40;99.90
23703;DHT22;12030;50.376;8.762;2023-07-24T04:21:53;17.40;99.90
23703;DHT22;12030;50.376;8.762;2023-07-24T04:24:18;17.40;99.90
23703;DHT22;12030;50.376;8.762;2023-07-24T04:26:44;17.40;99.90
23703;DHT22;12030;50.376;8.762;2023-07-24T04:29:09;17.50;99.90
23703;DHT22;12030;50.376;8.762;2023-07-24T04:31:35;17.50;99.90
23703;DHT22;12030;50.376;8.762;2023-07-24T04:34:00;17.60;99.90
23703;DHT22;12030;50.376;8.762;2023-07-24T04:36:26;17.60;99.90
23703;DHT22;12030;50.376;8.762;2023-07-24T04:38:51;17.70;99.90
23703;DHT22;12030;50.376;8.762;2023-07-24T04:41:17;17.70;99.90
23703;DHT22;12030;50.376;8.762;2023-07-24T04:43:42;17.80;99.90
23703;DHT22;12030;50.376;8.762;2023-07-24T04:46:08;17.80;99.90
23703;DHT22;12030;50.376;8.762;2023-07-24T04:48:33;17.80;99.90
23703;DHT22;12030;50.376;8.762;2023-07-24T04:50:59;17.90;99.90
23703;DHT22;12030;50.376;8.762;2023-07-24T04:53:24;17.90;99.90
23703;DHT22;12030;50.376;8.762;2023-07-24T04:55:50;18.00;99.90
23703;DHT22;12030;50.376;8.762;2023-07-24T04:58:15;18.00;99.90
23703;DHT22;12030;50.376;8.762;2023-07-24T05:00:41;18.10;99.90
23703;DHT22;12030;50.376;8.762;2023-07-24T05:03:06;18.10;99.90
23703;DHT22;12030;50.376;8.762;2023-07-24T05:05:39;18.20;99.90
23703;DHT22;12030;50.376;8.762;2023-07-24T05:08:05;18.30;99.90
23703;DHT22;12030;50.376;8.762;2023-07-24T05:10:37;18.30;99.90
23703;DHT22;12030;50.376;8.762;2023-07-24T05:13:03;18.30;99.90
23703;DHT22;12030;50.376;8.762;2023-07-24T05:15:29;18.40;99.90
23703;DHT22;12030;50.376;8.762;2023-07-24T05:17:54;18.40;99.90
23703;DHT22;12030;50.376;8.762;2023-07-24T05:20:20;18.40;99.90
23703;DHT22;12030;50.376;8.762;2023-07-24T05:22:45;18.40;99.90
23703;DHT22;12030;50.376;8.762;2023-07-24T05:25:11;18.40;99.90
23703;DHT22;12030;50.376;8.762;2023-07-24T05:27:36;18.40;99.90
23703;DHT22;12030;50.376;8.762;2023-07-24T05:30:03;18.40;99.90
23703;DHT22;12030;50.376;8.762;2023-07-24T05:32:29;18.50;99.90
23703;DHT22;12030;50.376;8.762;2023-07-24T05:34:54;18.50;99.90
23703;DHT22;12030;50.376;8.762;2023-07-24T05:37:20;18.60;99.90
23703;DHT22;12030;50.376;8.762;2023-07-24T05:39:45;18.60;99.90
23703;DHT22;12030;50.376;8.762;2023-07-24T05:42:11;18.60;99.90
23703;DHT22;12030;50.376;8.762;2023-07-24T05:44:36;18.60;99.90
23703;DHT22;12030;50.376;8.762;2023-07-24T05:47:02;18.70;99.90
23703;DHT22;12030;50.376;8.762;2023-07-24T05:49:28;18.70;99.90
23703;DHT22;12030;50.376;8.762;2023-07-24T05:51:54;18.70;99.90
23703;DHT22;12030;50.376;8.762;2023-07-24T05:54:19;18.80;99.90
23703;DHT22;12030;50.376;8.762;2023-07-24T05:56:45;18.90;99.90
23703;DHT22;12030;50.376;8.762;2023-07-24T05:59:10;18.90;99.90
23703;DHT22;12030;50.376;8.762;2023-07-24T06:01:36;19.00;99.90
23703;DHT22;12030;50.376;8.762;2023-07-24T06:04:01;19.10;99.90
23703;DHT22;12030;50.376;8.762;2023-07-24T06:06:27;19.10;99.90
23703;DHT22;12030;50.376;8.762;2023-07-24T06:08:53;19.30;99.90
23703;DHT22;12030;50.376;8.762;2023-07-24T06:11:19;19.40;99.90
23703;DHT22;12030;50.376;8.762;2023-07-24T06:13:44;19.50;99.90
23703;DHT22;12030;50.376;8.762;2023-07-24T06:16:10;19.60;99.90
23703;DHT22;12030;50.376;8.762;2023-07-24T06:18:38;19.80;99.90
23703;DHT22;12030;50.376;8.762;2023-07-24T06:21:03;19.90;99.90
23703;DHT22;12030;50.376;8.762;2023-07-24T06:23:29;20.00;99.90
23703;DHT22;12030;50.376;8.762;2023-07-24T06:25:54;20.10;99.90
23703;DHT22;12030;50.376;8.762;2023-07-24T06:28:20;20.10;99.90
23703;DHT22;12030;50.376;8.762;2023-07-24T06:30:46;20.10;99.90
23703;DHT22;12030;50.376;8.762;2023-07-24T06:33:12;20.10;99.90
23703;DHT22;12030;50.376;8.762;2023-07-24T06:35:37;20.10;99.90
23703;DHT22;12030;50.376;8.762;2023-07-24T06:38:03;20.00;99.90
23703;DHT22;12030;50.376;8.762;2023-07-24T06:40:28;20.10;99.90
23703;DHT22;12030;50.376;8.762;2023-07-24T06:42:54;20.00;99.90
23703;DHT22;12030;50.376;8.762;2023-07-24T06:45:19;20.00;99.90
23703;DHT22;12030;50.376;8.762;2023-07-24T06:47:45;20.10;99.90
23703;DHT22;12030;50.376;8.762;2023-07-24T06:50:10;20.10;99.90
23703;DHT22;12030;50.376;8.762;2023-07-24T06:52:36;20.10;99.90
23703;DHT22;12030;50.376;8.762;2023-07-24T06:55:02;20.20;99.90
23703;DHT22;12030;50.376;8.762;2023-07-24T06:57:27;20.20;99.90
23703;DHT22;12030;50.376;8.762;2023-07-24T06:59:53;20.20;99.90
23703;DHT22;12030;50.376;8.762;2023-07-24T07:02:18;20.30;99.90
23703;DHT22;12030;50.376;8.762;2023-07-24T07:04:44;20.30;99.90
23703;DHT22;12030;50.376;8.762;2023-07-24T07:07:09;20.40;99.90
23703;DHT22;12030;50.376;8.762;2023-07-24T07:09:35;20.50;99.90
23703;DHT22;12030;50.376;8.762;2023-07-24T07:12:01;20.60;99.90
23703;DHT22;12030;50.376;8.762;2023-07-24T07:14:26;20.80;99.90
23703;DHT22;12030;50.376;8.762;2023-07-24T07:16:52;20.90;99.90
23703;DHT22;12030;50.376;8.762;2023-07-24T07:19:17;21.10;99.90
23703;DHT22;12030;50.376;8.762;2023-07-24T07:21:43;21.30;99.90
23703;DHT22;12030;50.376;8.762;2023-07-24T07:24:08;21.50;99.90
23703;DHT22;12030;50.376;8.762;2023-07-24T07:26:34;21.60;99.90
23703;DHT22;12030;50.376;8.762;2023-07-24T07:28:59;21.70;99.90
23703;DHT22;12030;50.376;8.762;2023-07-24T07:31:25;21.80;99.90
23703;DHT22;12030;50.376;8.762;2023-07-24T07:33:51;21.90;99.90
23703;DHT22;12030;50.376;8.762;2023-07-24T07:36:16;22.10;99.90
23703;DHT22;12030;50.376;8.762;2023-07-24T07:38:43;22.20;99.90
23703;DHT22;12030;50.376;8.762;2023-07-24T07:41:09;22.30;99.90
23703;DHT22;12030;50.376;8.762;2023-07-24T07:43:34;22.30;99.90
23703;DHT22;12030;50.376;8.762;2023-07-24T07:46:02;22.30;99.90
23703;DHT22;12030;50.376;8.762;2023-07-24T07:48:27;22.20;99.90
23703;DHT22;12030;50.376;8.762;2023-07-24T07:50:53;22.20;99.90
23703;DHT22;12030;50.376;8.762;2023-07-24T07:53:18;22.10;99.90
23703;DHT22;12030;50.376;8.762;2023-07-24T07:55:44;22.10;99.90
23703;DHT22;12030;50.376;8.762;2023-07-24T07:58:09;22.10;99.90
23703;DHT22;12030;50.376;8.762;2023-07-24T08:00:35;22.10;99.90
23703;DHT22;12030;50.376;8.762;2023-07-24T08:03:00;22.10;99.90
23703;DHT22;12030;50.376;8.762;2023-07-24T08:05:26;22.20;99.90
23703;DHT22;12030;50.376;8.762;2023-07-24T08:07:52;22.40;99.90
23703;DHT22;12030;50.376;8.762;2023-07-24T08:10:27;22.40;99.90
23703;DHT22;12030;50.376;8.762;2023-07-24T08:12:52;22.40;99.90
23703;DHT22;12030;50.376;8.762;2023-07-24T08:15:18;22.60;99.90
23703;DHT22;12030;50.376;8.762;2023-07-24T08:17:43;22.60;99.90
23703;DHT22;12030;50.376;8.762;2023-07-24T08:20:09;22.60;99.90
23703;DHT22;12030;50.376;8.762;2023-07-24T08:22:35;22.70;99.90
23703;DHT22;12030;50.376;8.762;2023-07-24T08:25:00;22.80;99.90
23703;DHT22;12030;50.376;8.762;2023-07-24T08:27:26;22.80;99.90
23703;DHT22;12030;50.376;8.762;2023-07-24T08:29:51;22.80;99.90
23703;DHT22;12030;50.376;8.762;2023-07-24T08:32:18;22.90;99.90
23703;DHT22;12030;50.376;8.762;2023-07-24T08:34:44;22.80;99.90
23703;DHT22;12030;50.376;8.762;2023-07-24T08:37:13;23.00;99.90
23703;DHT22;12030;50.376;8.762;2023-07-24T08:39:39;22.90;99.90
23703;DHT22;12030;50.376;8.762;2023-07-24T08:42:09;23.00;99.90
23703;DHT22;12030;50.376;8.762;2023-07-24T08:44:35;23.10;99.90
23703;DHT22;12030;50.376;8.762;2023-07-24T08:47:02;23.20;99.90
23703;DHT22;12030;50.376;8.762;2023-07-24T08:49:29;23.40;99.90
23703;DHT22;12030;50.376;8.762;2023-07-24T08:51:57;23.50;99.90
23703;DHT22;12030;50.376;8.762;2023-07-24T08:54:24;23.60;99.90
23703;DHT22;12030;50.376;8.762;2023-07-24T08:56:52;23.90;99.90
23703;DHT22;12030;50.376;8.762;2023-07-24T08:59:18;24.20;99.90
23703;DHT22;12030;50.376;8.762;2023-07-24T09:01:44;24.40;99.90
23703;DHT22;12030;50.376;8.762;2023-07-24T09:04:09;24.60;99.90
23703;DHT22;12030;50.376;8.762;2023-07-24T09:06:36;24.60;99.90
23703;DHT22;12030;50.376;8.762;2023-07-24T09:09:02;24.60;99.90
23703;DHT22;12030;50.376;8.762;2023-07-24T09:11:28;24.70;99.90
23703;DHT22;12030;50.376;8.762;2023-07-24T09:13:53;24.80;99.90
23703;DHT22;12030;50.376;8.762;2023-07-24T09:16:26;24.80;99.90
23703;DHT22;12030;50.376;8.762;2023-07-24T09:18:52;24.80;99.90
23703;DHT22;12030;50.376;8.762;2023-07-24T09:21:31;24.70;99.90
23703;DHT22;12030;50.376;8.762;2023-07-24T09:23:56;24.80;99.90
23703;DHT22;12030;50.376;8.762;2023-07-24T09:26:23;25.00;99.90
23703;DHT22;12030;50.376;8.762;2023-07-24T09:28:53;25.50;99.90
23703;DHT22;12030;50.376;8.762;2023-07-24T09:31:18;25.10;99.90
23703;DHT22;12030;50.376;8.762;2023-07-24T09:33:44;25.10;99.90
23703;DHT22;12030;50.376;8.762;2023-07-24T09:36:10;25.20;99.90
23703;DHT22;12030;50.376;8.762;2023-07-24T09:38:37;25.20;99.90
23703;DHT22;12030;50.376;8.762;2023-07-24T09:41:03;25.20;99.90
23703;DHT22;12030;50.376;8.762;2023-07-24T09:43:29;25.20;99.90
23703;DHT22;12030;50.376;8.762;2023-07-24T09:45:55;25.20;99.90
23703;DHT22;12030;50.376;8.762;2023-07-24T09:48:25;25.20;99.90
23703;DHT22;12030;50.376;8.762;2023-07-24T09:50:56;25.10;99.90
23703;DHT22;12030;50.376;8.762;2023-07-24T09:53:51;26.00;99.90
23703;DHT22;12030;50.376;8.762;2023-07-24T09:56:19;25.30;99.90
23703;DHT22;12030;50.376;8.762;2023-07-24T09:58:46;25.50;99.90
23703;DHT22;12030;50.376;8.762;2023-07-24T10:01:15;25.60;99.90
23703;DHT22;12030;50.376;8.762;2023-07-24T10:03:45;25.60;99.90
23703;DHT22;12030;50.376;8.762;2023-07-24T10:06:11;25.80;99.90
23703;DHT22;12030;50.376;8.762;2023-07-24T10:08:38;26.20;99.90
23703;DHT22;12030;50.376;8.762;2023-07-24T10:11:04;26.50;99.90
23703;DHT22;12030;50.376;8.762;2023-07-24T10:13:30;26.70;99.90
23703;DHT22;12030;50.376;8.762;2023-07-24T10:15:56;26.90;99.90
23703;DHT22;12030;50.376;8.762;2023-07-24T10:18:27;26.70;99.80
23703;DHT22;12030;50.376;8.762;2023-07-24T10:21:07;26.40;99.50
23703;DHT22;12030;50.376;8.762;2023-07-24T10:23:40;26.30;99.90
23703;DHT22;12030;50.376;8.762;2023-07-24T10:26:07;26.30;99.60
23703;DHT22;12030;50.376;8.762;2023-07-24T10:28:34;26.10;99.90
23703;DHT22;12030;50.376;8.762;2023-07-24T10:31:03;26.10;99.90
23703;DHT22;12030;50.376;8.762;2023-07-24T10:33:35;26.30;99.90
23703;DHT22;12030;50.376;8.762;2023-07-24T10:36:07;25.80;99.90
23703;DHT22;12030;50.376;8.762;2023-07-24T10:38:39;25.70;99.90
23703;DHT22;12030;50.376;8.762;2023-07-24T10:41:06;25.80;99.90
23703;DHT22;12030;50.376;8.762;2023-07-24T10:43:44;26.20;99.90
23703;DHT22;12030;50.376;8.762;2023-07-24T10:46:11;26.10;99.60
23703;DHT22;12030;50.376;8.762;2023-07-24T10:48:37;26.30;99.90
23703;DHT22;12030;50.376;8.762;2023-07-24T10:51:10;26.60;99.50
23703;DHT22;12030;50.376;8.762;2023-07-24T10:53:37;26.60;99.60
23703;DHT22;12030;50.376;8.762;2023-07-24T10:56:04;26.70;99.60
23703;DHT22;12030;50.376;8.762;2023-07-24T10:58:30;26.60;99.00
23703;DHT22;12030;50.376;8.762;2023-07-24T11:00:56;26.60;98.60
23703;DHT22;12030;50.376;8.762;2023-07-24T11:03:24;27.00;98.70
23703;DHT22;12030;50.376;8.762;2023-07-24T11:05:49;26.70;98.50
23703;DHT22;12030;50.376;8.762;2023-07-24T11:08:18;26.50;98.00
23703;DHT22;12030;50.376;8.762;2023-07-24T11:10:45;27.00;98.90
23703;DHT22;12030;50.376;8.762;2023-07-24T11:13:12;26.70;98.40
23703;DHT22;12030;50.376;8.762;2023-07-24T11:15:37;26.60;97.80
23703;DHT22;12030;50.376;8.762;2023-07-24T11:18:04;26.70;98.10
23703;DHT22;12030;50.376;8.762;2023-07-24T11:20:36;26.90;98.40
23703;DHT22;12030;50.376;8.762;2023-07-24T11:23:02;27.10;97.30
23703;DHT22;12030;50.376;8.762;2023-07-24T11:25:27;27.20;96.40
23703;DHT22;12030;50.376;8.762;2023-07-24T11:27:53;27.20;96.50
23703;DHT22;12030;50.376;8.762;2023-07-24T11:30:20;27.30;95.90
23703;DHT22;12030;50.376;8.762;2023-07-24T11:32:46;27.40;95.10
23703;DHT22;12030;50.376;8.762;2023-07-24T11:35:12;27.50;95.80
23703;DHT22;12030;50.376;8.762;2023-07-24T11:37:38;27.60;94.80
23703;DHT22;12030;50.376;8.762;2023-07-24T11:40:04;27.60;94.10
23703;DHT22;12030;50.376;8.762;2023-07-24T11:42:37;27.80;93.80
23703;DHT22;12030;50.376;8.762;2023-07-24T11:45:03;27.90;92.90
23703;DHT22;12030;50.376;8.762;2023-07-24T11:47:29;27.90;90.70
23703;DHT22;12030;50.376;8.762;2023-07-24T11:50:02;27.90;90.10
23703;DHT22;12030;50.376;8.762;2023-07-24T11:52:38;28.80;90.20
23703;DHT22;12030;50.376;8.762;2023-07-24T11:55:05;27.70;90.20
23703;DHT22;12030;50.376;8.762;2023-07-24T11:57:30;27.50;90.40
23703;DHT22;12030;50.376;8.762;2023-07-24T11:59:56;27.40;90.80
23703;DHT22;12030;50.376;8.762;2023-07-24T12:02:26;27.60;91.70
23703;DHT22;12030;50.376;8.762;2023-07-24T12:04:58;27.20;91.60
23703;DHT22;12030;50.376;8.762;2023-07-24T12:07:34;27.00;91.50
23703;DHT22;12030;50.376;8.762;2023-07-24T12:10:01;27.00;92.10
23703;DHT22;12030;50.376;8.762;2023-07-24T12:12:40;27.80;92.00
23703;DHT22;12030;50.376;8.762;2023-07-24T12:15:06;27.80;91.70
23703;DHT22;12030;50.376;8.762;2023-07-24T12:17:32;27.90;91.10
23703;DHT22;12030;50.376;8.762;2023-07-24T12:19:57;28.10;91.50
23703;DHT22;12030;50.376;8.762;2023-07-24T12:22:23;28.10;91.80
23703;DHT22;12030;50.376;8.762;2023-07-24T12:24:48;28.70;91.70
23703;DHT22;12030;50.376;8.762;2023-07-24T12:27:14;29.90;91.30
23703;DHT22;12030;50.376;8.762;2023-07-24T12:29:39;28.80;91.20
23703;DHT22;12030;50.376;8.762;2023-07-24T12:32:05;28.30;91.50
23703;DHT22;12030;50.376;8.762;2023-07-24T12:34:30;28.50;92.10
23703;DHT22;12030;50.376;8.762;2023-07-24T12:36:56;28.70;91.00
23703;DHT22;12030;50.376;8.762;2023-07-24T12:39:21;29.00;91.50
23703;DHT22;12030;50.376;8.762;2023-07-24T12:41:47;29.10;91.00
23703;DHT22;12030;50.376;8.762;2023-07-24T12:44:12;29.40;91.00
23703;DHT22;12030;50.376;8.762;2023-07-24T12:46:38;29.30;90.60
23703;DHT22;12030;50.376;8.762;2023-07-24T12:49:04;29.50;90.90
23703;DHT22;12030;50.376;8.762;2023-07-24T12:51:29;29.70;90.40
23703;DHT22;12030;50.376;8.762;2023-07-24T12:53:54;29.70;90.00
23703;DHT22;12030;50.376;8.762;2023-07-24T12:56:20;29.80;90.40
23703;DHT22;12030;50.376;8.762;2023-07-24T12:58:46;30.10;90.20
23703;DHT22;12030;50.376;8.762;2023-07-24T13:01:11;30.00;89.10
23703;DHT22;12030;50.376;8.762;2023-07-24T13:03:37;30.10;88.40
23703;DHT22;12030;50.376;8.762;2023-07-24T13:06:02;30.20;89.10
23703;DHT22;12030;50.376;8.762;2023-07-24T13:08:28;30.40;89.10
23703;DHT22;12030;50.376;8.762;2023-07-24T13:10:53;31.10;89.90
23703;DHT22;12030;50.376;8.762;2023-07-24T13:13:19;30.40;88.40
23703;DHT22;12030;50.376;8.762;2023-07-24T13:15:44;29.90;88.30
23703;DHT22;12030;50.376;8.762;2023-07-24T13:18:10;30.10;89.50
23703;DHT22;12030;50.376;8.762;2023-07-24T13:20:39;30.20;89.40
23703;DHT22;12030;50.376;8.762;2023-07-24T13:23:05;30.20;88.00
23703;DHT22;12030;50.376;8.762;2023-07-24T13:25:31;30.50;88.30
23703;DHT22;12030;50.376;8.762;2023-07-24T13:27:56;30.60;87.60
23703;DHT22;12030;50.376;8.762;2023-07-24T13:30:22;30.90;86.80
23703;DHT22;12030;50.376;8.762;2023-07-24T13:32:47;30.70;85.70
23703;DHT22;12030;50.376;8.762;2023-07-24T13:35:13;31.10;85.50
23703;DHT22;12030;50.376;8.762;2023-07-24T13:37:40;30.90;84.60
23703;DHT22;12030;50.376;8.762;2023-07-24T13:40:06;31.00;85.50
23703;DHT22;12030;50.376;8.762;2023-07-24T13:42:32;31.00;85.30
23703;DHT22;12030;50.376;8.762;2023-07-24T13:44:57;30.60;85.10
23703;DHT22;12030;50.376;8.762;2023-07-24T13:47:23;30.90;85.80
23703;DHT22;12030;50.376;8.762;2023-07-24T13:49:49;31.00;84.60
23703;DHT22;12030;50.376;8.762;2023-07-24T13:52:14;30.90;85.20
23703;DHT22;12030;50.376;8.762;2023-07-24T13:54:40;30.90;85.50
23703;DHT22;12030;50.376;8.762;2023-07-24T13:57:05;30.70;84.70
23703;DHT22;12030;50.376;8.762;2023-07-24T13:59:36;30.40;85.50
23703;DHT22;12030;50.376;8.762;2023-07-24T14:02:03;30.30;84.60
23703;DHT22;12030;50.376;8.762;2023-07-24T14:04:29;29.60;85.90
23703;DHT22;12030;50.376;8.762;2023-07-24T14:06:54;28.90;87.10
23703;DHT22;12030;50.376;8.762;2023-07-24T14:09:20;28.50;88.50
23703;DHT22;12030;50.376;8.762;2023-07-24T14:11:45;27.90;89.90
23703;DHT22;12030;50.376;8.762;2023-07-24T14:14:11;27.50;90.40
23703;DHT22;12030;50.376;8.762;2023-07-24T14:16:37;27.20;91.40
23703;DHT22;12030;50.376;8.762;2023-07-24T14:19:02;26.90;93.80
23703;DHT22;12030;50.376;8.762;2023-07-24T14:21:28;26.30;97.40
23703;DHT22;12030;50.376;8.762;2023-07-24T14:23:54;25.50;99.90
23703;DHT22;12030;50.376;8.762;2023-07-24T14:26:19;24.60;99.90
23703;DHT22;12030;50.376;8.762;2023-07-24T14:28:44;23.90;99.90
23703;DHT22;12030;50.376;8.762;2023-07-24T14:31:10;23.50;99.90
23703;DHT22;12030;50.376;8.762;2023-07-24T14:33:36;23.20;99.90
23703;DHT22;12030;50.376;8.762;2023-07-24T14:36:01;23.00;99.90
23703;DHT22;12030;50.376;8.762;2023-07-24T14:38:27;23.30;99.90
23703;DHT22;12030;50.376;8.762;2023-07-24T14:40:53;23.90;99.90
23703;DHT22;12030;50.376;8.762;2023-07-24T14:43:18;24.40;99.90
23703;DHT22;12030;50.376;8.762;2023-07-24T14:45:44;24.60;99.90
23703;DHT22;12030;50.376;8.762;2023-07-24T14:48:09;24.80;99.90
23703;DHT22;12030;50.376;8.762;2023-07-24T14:50:35;25.30;99.90
23703;DHT22;12030;50.376;8.762;2023-07-24T14:53:00;25.40;99.90
23703;DHT22;12030;50.376;8.762;2023-07-24T14:55:26;25.60;99.90
23703;DHT22;12030;50.376;8.762;2023-07-24T14:57:51;26.00;99.90
23703;DHT22;12030;50.376;8.762;2023-07-24T15:00:17;26.70;99.90
23703;DHT22;12030;50.376;8.762;2023-07-24T15:02:43;26.40;99.90
23703;DHT22;12030;50.376;8.762;2023-07-24T15:05:09;26.40;99.90
23703;DHT22;12030;50.376;8.762;2023-07-24T15:07:34;26.70;99.90
23703;DHT22;12030;50.376;8.762;2023-07-24T15:10:00;27.10;99.90
23703;DHT22;12030;50.376;8.762;2023-07-24T15:12:25;27.30;99.90
23703;DHT22;12030;50.376;8.762;2023-07-24T15:14:51;27.40;99.90
23703;DHT22;12030;50.376;8.762;2023-07-24T15:17:16;27.60;99.90
23703;DHT22;12030;50.376;8.762;2023-07-24T15:19:43;27.40;99.90
23703;DHT22;12030;50.376;8.762;2023-07-24T15:22:09;27.50;99.90
23703;DHT22;12030;50.376;8.762;2023-07-24T15:24:35;27.80;99.90
23703;DHT22;12030;50.376;8.762;2023-07-24T15:27:00;27.90;99.90
23703;DHT22;12030;50.376;8.762;2023-07-24T15:29:33;28.10;99.90